Tiempo atmosférico en la estación meteorológica de Agulo, Santa Cruz de Tenerife (765 m.)



Fecha
DESCASC
Temp. máxima en grados centígrados (hora)
DESCASC
Temp. mínima en grados centígrados (hora)
DESCASC
Temp. media en grados centígrados
DESCASC
Racha de viento máxima en m/sg (hora)
DESCASC
Velocidad máxima media en intervalos de 10 minutos(hora)
DESCASC
Precipitaciones diarias en mm
DESCASC
Precipitaciones de 00:00 a 06:00 en mm
DESCASC
Precipitaciones de 06:00 a 12:00 en mm
DESCASC
Precipitaciones de 12:00 a 18:00 en mm
DESCASC
Precipitaciones de 18:00 a 24:00 en mm
DESCASC
16-04-2019 19.7 (17:10) 11.1 (23:59) 15.4 11.11 (20:20) 6.67 (21:10) 0 0 0 0 0
15-04-2019 18.4 (14:30) 11.3 (05:50) 14.8 6.39 (13:50) 2.78 (13:30) 0 0 0 0 0
14-04-2019 20.3 (15:40) 10.2 (00:00) 15.2 7.5 (07:00) 5.56 (06:40) 0 0 0 0 0
13-04-2019 15.4 (14:20) 10.9 (00:00) 13.1 7.22 (06:20) 2.78 (06:00) 0 0 0 0 0
12-04-2019 16 (14:30) 9.9 (00:00) 12.9 7.22 (13:50) 3.06 (10:40) 0 0 0 0 0
11-04-2019 16.1 (15:10) 10.2 (00:00) 13.2 8.33 (12:30) 2.5 (11:10) 0 0 0 0 0
10-04-2019 15.7 (16:50) 10.1 (00:00) 12.9 7.78 (12:20) 2.78 (04:20) 0 0 0 0 0
09-04-2019 17.8 (13:30) 10.3 (00:00) 14 6.94 (13:30) 2.78 (19:20) 0.6 0 0 0.6 0
08-04-2019 16.7 (17:10) 10.5 (00:00) 13.6 5.83 (16:30) 2.22 (07:50) 0.4 0.2 0.2 0 0
07-04-2019 15.1 (18:30) 9.4 (00:00) 12.3 4.44 (17:50) 2.22 (19:00) 0 0 0 0 0
06-04-2019 14.5 (17:00) 9.3 (00:00) 11.9 9.72 (07:40) 3.33 (01:20) 0.2 0.2 0 0 0
05-04-2019 13 (15:00) 9.6 (00:00) 11.3 11.11 (21:30) 3.89 (21:30) 0.6 0 0 0 0.6
04-04-2019 13.2 (14:10) 9.1 (00:00) 11.2 8.61 (00:20) 5.83 (00:20) 4.6 3.8 0.8 0 0
03-04-2019 15.6 (15:40) 9.2 (06:00) 12.4 11.11 (16:50) 6.39 (16:50) 6.2 1.4 0.4 0 4.4
02-04-2019 12.6 (13:20) 8.6 (00:00) 10.6 8.33 (15:50) 2.78 (15:10) 70.6 0.4 12 51.8 6.4
01-04-2019 16.2 (12:00) 8.9 (00:00) 12.6 5.28 (12:30) 3.06 (23:10) 23.6 0 0 2.4 21.2
31-03-2019 16.4 (15:50) 10.1 (00:00) 13.3 6.39 (06:40) 3.33 (03:30) 1.2 0 0 0.6 0.6
30-03-2019 16.5 (15:50) 9.1 (00:00) 12.8 7.78 (09:00) 4.44 (03:10) 3 2.4 0.6 0 0
29-03-2019 15.6 (17:00) 9.6 (00:00) 12.6 6.39 (17:50) 3.06 (13:10) 13.2 0.6 0 0 12.6
28-03-2019 13.9 (10:30) 10 (00:00) 11.9 3.89 (21:30) 3.33 (21:50) 11.6 0 0.2 11.4 0
27-03-2019 13.7 (13:10) 10.7 (00:00) 12.2 6.67 (00:30) 2.5 (02:20) 0.6 0 0 0.6 0
26-03-2019 18 (15:30) 8.4 (00:00) 13.2 7.78 (21:00) 5 (04:50) 0 0 0 0 0
25-03-2019 13.2 (16:20) 9.1 (00:00) 11.2 8.61 (12:30) 6.39 (11:30) 21.4 0.4 9.8 0.8 10.4
24-03-2019 16.7 (16:10) 9.7 (00:00) 13.2 6.11 (16:20) 4.44 (16:20) 0 0 0 0 0
23-03-2019 15.1 (15:50) 10 (00:00) 12.6 6.11 (01:20) 2.78 (01:20) 0 0 0 0 0
22-03-2019 13.5 (14:10) 10.2 (00:00) 11.8 7.22 (08:10) 2.5 (08:10) 0 0 0 0 0
21-03-2019 13.5 (12:10) 10.9 (00:00) 12.2 6.11 (18:20) 2.22 (11:20) 0 0 0 0 0
20-03-2019 13.5 (12:10) 10.2 (00:00) 11.8 6.67 (06:40) 3.06 (06:40) 0 0 0 0 0
19-03-2019 11.9 (15:00) 10.5 (00:00) 11.2 8.33 (07:40) 3.06 (07:20) 0 0 0 0 0

Gráficas

Temp. máximas Temp. mínimas Temp. medias Precipitaciones Rachas de viento máximas Velocidades máximas media en intervalos de 10 minutos

Datos horarios

Fecha y hora oficial Temperatura (ºC) Velocidad del viento (km/h) Dirección del viento Racha (km/h) Dirección de racha Precipitación (mm) Presión (hPa) Tendencia (hPa) Humedad (%)
2019-04-17 23:00:00 11.8 7 Sudoeste 21 Sudeste 0 -- -- 96
2019-04-17 22:00:00 11.7 6 Oeste 24 Noroeste 0 -- -- 96
2019-04-17 21:00:00 12 9 Sudeste 25 Nordeste 0 -- -- 97
2019-04-17 20:00:00 12.3 6 Sudeste 19 Norte 0 -- -- 94
2019-04-17 19:00:00 13 5 Sur 17 Nordeste 0 -- -- 92
2019-04-17 18:00:00 14.2 6 Norte 20 Nordeste 0 -- -- 86
2019-04-17 17:00:00 13 6 Nordeste 23 Norte 0 -- -- 95
2019-04-17 16:00:00 12.8 7 Norte 24 Norte 0.6 -- -- 95
2019-04-17 15:00:00 14.6 5 Norte 15 Nordeste 0 -- -- 92
2019-04-17 14:00:00 14.3 5 Noroeste 21 Norte 0 -- -- 91
2019-04-17 13:00:00 14.2 5 Noroeste 17 Norte 0 -- -- 96
2019-04-17 12:00:00 13.4 6 Norte 19 Noroeste 0.2 -- -- 98
2019-04-17 11:00:00 14 6 Norte 22 Norte 0 -- -- 95
2019-04-17 10:00:00 14.3 15 Noroeste 37 Noroeste 0 -- -- 93
2019-04-17 09:00:00 13.7 18 Noroeste 37 Noroeste 0 -- -- 91
2019-04-17 08:00:00 12.3 29 Noroeste 39 Noroeste 0 -- -- 93
2019-04-17 07:00:00 12.2 6 Sudoeste 19 Noroeste 0 -- -- 72
2019-04-17 06:00:00 12 12 Noroeste 36 Noroeste 0 -- -- 83
2019-04-17 05:00:00 11.6 23 Noroeste 32 Noroeste 0 -- -- 93
2019-04-17 04:00:00 11.5 13 Noroeste 22 Noroeste 0 -- -- 85
2019-04-17 03:00:00 11.8 13 Noroeste 22 Noroeste 0 -- -- 82
2019-04-17 02:00:00 11 8 Oeste 26 Noroeste 0 -- -- 86
2019-04-17 01:00:00 10.8 7 Sudoeste 27 Noroeste 0 -- -- 89
2019-04-17 00:00:00 11.1 9 Norte 15 Norte 0 -- -- 87
2019-04-16 23:00:00 11.9 9 Noroeste 34 Noroeste 0 -- -- 85
2019-04-16 22:00:00 12.7 12 Norte 40 Noroeste 0 -- -- 84
2019-04-16 21:00:00 13.2 19 Noroeste 40 Noroeste 0 -- -- 86
2019-04-16 20:00:00 14.4 18 Noroeste 29 Noroeste 0 -- -- 79
2019-04-16 19:00:00 17.1 6 Norte 18 Noroeste 0 -- -- 76
2019-04-16 18:00:00 18.7 5 Norte 13 Sur 0 -- -- 70
2019-04-16 17:00:00 19.4 7 Sudeste 16 Sur 0 -- -- 69
2019-04-16 16:00:00 18.2 9 Sudeste 19 Sudeste 0 -- -- 74
2019-04-16 15:00:00 15.9 7 Sur 17 Sudeste 0 -- -- 86
2019-04-16 14:00:00 16.6 7 Sur 18 Sudeste 0 -- -- 81
2019-04-16 13:00:00 16.5 4 Este 15 Este 0 -- -- 82
2019-04-16 12:00:00 16.4 6 Sudeste 13 Sur 0 -- -- 81
2019-04-16 11:00:00 15.4 4 Norte 17 Sur 0 -- -- 82
2019-04-16 10:00:00 15.1 4 Norte 13 Nordeste 0 -- -- 86
2019-04-16 09:00:00 13.2 3 Norte 12 Norte 0 -- -- 96
2019-04-16 08:00:00 12 8 Norte 18 Noroeste 0 -- -- 98
2019-04-16 07:00:00 12.2 6 Noroeste 10 Noroeste 0 -- -- 96
2019-04-16 06:00:00 12.7 0 Calma 8 Sur 0 -- -- 97
2019-04-16 05:00:00 12.8 5 Este 14 Nordeste 0 -- -- 97
2019-04-16 04:00:00 12.4 5 Sudoeste 9 Noroeste 0 -- -- 95
2019-04-16 03:00:00 12.5 2 Sudoeste 9 Sudoeste 0 -- -- 94
2019-04-16 02:00:00 12.7 4 Oeste 9 Nordeste 0 -- -- 94
2019-04-16 01:00:00 12.7 6 Sudoeste 9 Sudoeste 0 -- -- 93
2019-04-16 00:00:00 13.1 2 Sudoeste 7 Este 0 -- -- 94
2019-04-15 23:00:00 13 4 Sudoeste 8 Sudoeste 0 -- -- 92
2019-04-15 22:00:00 13.3 2 Este 8 Este 0 -- -- 94
2019-04-15 21:00:00 13.7 3 Sudeste 12 Noroeste 0 -- -- 91
2019-04-15 20:00:00 14.2 6 Noroeste 12 Noroeste 0 -- -- 92
2019-04-15 19:00:00 15.3 4 Norte 10 Norte 0 -- -- 87
2019-04-15 18:00:00 15.4 4 Noroeste 12 Nordeste 0 -- -- 90
2019-04-15 17:00:00 15.4 4 Este 15 Sudoeste 0 -- -- 88
2019-04-15 16:00:00 16.8 4 Sudoeste 14 Este 0 -- -- 76
2019-04-15 15:00:00 18 5 Oeste 18 Nordeste 0 -- -- 70
2019-04-15 14:00:00 16.9 6 Sudeste 23 Sudeste 0 -- -- 77
2019-04-15 13:00:00 17.4 7 Este 19 Este 0 -- -- 77
2019-04-15 12:00:00 18.1 5 Nordeste 20 Sur 0 -- -- 68
2019-04-15 11:00:00 16.4 5 Sur 15 Sudeste 0 -- -- 75
2019-04-15 10:00:00 14.3 6 Sudeste 17 Sudeste 0 -- -- 85
2019-04-15 09:00:00 12.4 4 Sur 12 Nordeste 0 -- -- 90
2019-04-15 08:00:00 11.7 4 Nordeste 15 Este 0 -- -- 94
2019-04-15 07:00:00 11.7 4 Nordeste 17 Nordeste 0 -- -- 96
2019-04-15 06:00:00 11.3 5 Norte 14 Nordeste 0 -- -- 96
2019-04-15 05:00:00 11.8 4 Sudeste 12 Norte 0 -- -- 98
2019-04-15 04:00:00 11.9 3 Norte 10 Nordeste 0 -- -- 97
2019-04-15 03:00:00 12 3 Sur 19 Norte 0 -- -- 96
2019-04-15 02:00:00 12.4 5 Nordeste 19 Nordeste 0 -- -- 97
2019-04-15 01:00:00 12.5 7 Nordeste 21 Norte 0 -- -- 98
2019-04-15 00:00:00 12.7 9 Nordeste 22 Norte 0 -- -- 97
2019-04-14 23:00:00 12.8 6 Norte 19 Norte 0 -- -- 96
2019-04-14 22:00:00 12.6 8 Norte 19 Norte 0 -- -- 94
2019-04-14 21:00:00 12.9 4 Nordeste 14 Norte 0 -- -- 90
2019-04-14 20:00:00 14.4 7 Norte 22 Norte 0 -- -- 85
2019-04-14 19:00:00 18.7 9 Norte 22 Noroeste 0 -- -- 69
2019-04-14 18:00:00 19.4 9 Norte 22 Noroeste 0 -- -- 63
2019-04-14 17:00:00 19 14 Norte 22 Norte 0 -- -- 71
2019-04-14 16:00:00 19.9 6 Norte 15 Norte 0 -- -- 64
2019-04-14 15:00:00 19.6 5 Norte 15 Noroeste 0 -- -- 71
2019-04-14 14:00:00 18.4 6 Norte 15 Sudeste 0 -- -- 76
2019-04-14 13:00:00 18.3 5 Norte 16 Sudeste 0 -- -- 76
2019-04-14 12:00:00 17.8 6 Sudeste 15 Sur 0 -- -- 77
2019-04-14 11:00:00 16.6 5 Sudeste 14 Sudeste 0 -- -- 77
2019-04-14 10:00:00 14.1 3 Norte 17 Norte 0 -- -- 84
2019-04-14 09:00:00 12.3 10 Norte 15 Sudoeste 0 -- -- 86
2019-04-14 08:00:00 10.4 11 Norte 24 Norte 0 -- -- 93
2019-04-14 07:00:00 10.2 20 Norte 27 Noroeste 0 -- -- 99
2019-04-14 06:00:00 10.7 5 Norte 10 Noroeste 0 -- -- 98
2019-04-14 05:00:00 11.3 2 Norte 12 Sudeste 0 -- -- 99
2019-04-14 04:00:00 11.2 3 Nordeste 12 Nordeste 0 -- -- 99
2019-04-14 03:00:00 11.6 3 Sudeste 15 Sudeste 0 -- -- 99
2019-04-14 02:00:00 11.6 6 Sudeste 15 Este 0 -- -- 99
2019-04-14 01:00:00 11.9 3 Sudeste 14 Este 0 -- -- 99
2019-04-14 00:00:00 11.8 5 Nordeste 15 Este 0 -- -- 98
2019-04-13 23:00:00 12.1 5 Sur 10 Sudeste 0 -- -- 98
2019-04-13 22:00:00 12.1 2 Sur 8 Sudeste 0 -- -- 97
2019-04-13 21:00:00 12.2 0 Calma 11 Sudeste 0 -- -- 97
2019-04-13 20:00:00 12.4 3 Nordeste 14 Nordeste 0 -- -- 97
2019-04-13 19:00:00 12.5 5 Sudeste 15 Nordeste 0 -- -- 95
2019-04-13 18:00:00 13.2 5 Este 15 Sudeste 0 -- -- 91
2019-04-13 17:00:00 13.6 6 Sudeste 18 Sudeste 0 -- -- 91
2019-04-13 16:00:00 13.9 5 Sur 17 Este 0 -- -- 90
2019-04-13 15:00:00 15.1 6 Sudeste 18 Este 0 -- -- 82
2019-04-13 14:00:00 14.7 5 Sudoeste 18 Sur 0 -- -- 84
2019-04-13 13:00:00 13.4 4 Sur 13 Noroeste 0 -- -- 88
2019-04-13 12:00:00 13.6 5 Sudoeste 15 Sudeste 0 -- -- 90
2019-04-13 11:00:00 12.5 5 Sudeste 19 Sudeste 0 -- -- 96
2019-04-13 10:00:00 11.7 8 Sudeste 22 Sudeste 0 -- -- 99
2019-04-13 09:00:00 11.6 6 Sudeste 19 Sudeste 0 -- -- 99
2019-04-13 08:00:00 11.1 8 Sudeste 22 Este 0 -- -- 99
2019-04-13 07:00:00 11 9 Este 26 Nordeste 0 -- -- 99
2019-04-13 06:00:00 11.4 10 Sudeste 21 Sudeste 0 -- -- 99
2019-04-13 05:00:00 11.3 9 Sudeste 23 Nordeste 0 -- -- 99
2019-04-13 04:00:00 11.2 7 Sudeste 21 Este 0 -- -- 98
2019-04-13 03:00:00 11.1 8 Sudeste 23 Este 0 -- -- 98
2019-04-13 02:00:00 11 6 Sudeste 21 Este 0 -- -- 96
2019-04-13 01:00:00 11 6 Este 17 Sudeste 0 -- -- 95
2019-04-13 00:00:00 11 5 Sur 12 Sudeste 0 -- -- 94
2019-04-12 23:00:00 11 5 Sudeste 15 Este 0 -- -- 93
2019-04-12 22:00:00 11.2 5 Sudeste 15 Sudeste 0 -- -- 94
2019-04-12 21:00:00 11.3 5 Sur 17 Este 0 -- -- 93
2019-04-12 20:00:00 11.6 4 Sur 15 Sur 0 -- -- 90
2019-04-12 19:00:00 12.5 6 Sudeste 15 Noroeste 0 -- -- 88
2019-04-12 18:00:00 13.2 6 Sur 15 Nordeste 0 -- -- 85
2019-04-12 17:00:00 14.1 5 Sudeste 14 Este 0 -- -- 80
2019-04-12 16:00:00 13.9 6 Sur 16 Sur 0 -- -- 85
2019-04-12 15:00:00 15.9 5 Sur 23 Sudeste 0 -- -- 75
2019-04-12 14:00:00 15.4 9 Sudeste 26 Sudeste 0 -- -- 75
2019-04-12 13:00:00 15 7 Sur 21 Sudeste 0 -- -- 76
2019-04-12 12:00:00 13.7 7 Este 19 Sudeste 0 -- -- 86
2019-04-12 11:00:00 13.4 10 Sudeste 22 Este 0 -- -- 84
2019-04-12 10:00:00 12 7 Sudeste 18 Este 0 -- -- 86
2019-04-12 09:00:00 10.9 7 Sudeste 22 Sudeste 0 -- -- 92
2019-04-12 08:00:00 10.5 6 Sudeste 19 Sudeste 0 -- -- 94
2019-04-12 07:00:00 10.3 7 Sudeste 22 Nordeste 0 -- -- 92
2019-04-12 06:00:00 10.1 8 Sudoeste 21 Este 0 -- -- 88
2019-04-12 05:00:00 10.5 9 Sur 23 Sudeste 0 -- -- 93
2019-04-12 04:00:00 10.5 8 Sur 23 Sur 0 -- -- 95
2019-04-12 03:00:00 10.4 8 Sudeste 17 Sur 0 -- -- 94
2019-04-12 02:00:00 10.5 7 Sudeste 17 Sudeste 0 -- -- 95
2019-04-12 01:00:00 10.7 6 Sudeste 22 Oeste 0 -- -- 91
2019-04-12 00:00:00 11.2 8 Sudoeste 22 Sudeste 0 -- -- 94
2019-04-11 23:00:00 10.6 6 Este 24 Este 0 -- -- 88
2019-04-11 22:00:00 11.1 8 Sur 24 Sudeste 0 -- -- 92
2019-04-11 21:00:00 11.4 6 Sudoeste 18 Sur 0 -- -- 93
2019-04-11 20:00:00 11.9 5 Sur 14 Sur 0 -- -- 89
2019-04-11 19:00:00 12.6 7 Sudeste 17 Nordeste 0 -- -- 87
2019-04-11 18:00:00 13.9 5 Sur 15 Sudeste 0 -- -- 80
2019-04-11 17:00:00 14 5 Sudoeste 17 Sudeste 0 -- -- 80
2019-04-11 16:00:00 15.1 4 Sudeste 19 Este 0 -- -- 76
2019-04-11 15:00:00 15.6 6 Sudeste 23 Este 0 -- -- 72
2019-04-11 14:00:00 15.5 7 Sudeste 18 Sudeste 0 -- -- 69
2019-04-11 13:00:00 14.1 6 Sudeste 30 Sudeste 0 -- -- 76
2019-04-11 12:00:00 14.3 5 Este 18 Sudeste 0 -- -- 72
2019-04-11 11:00:00 12.1 9 Sudeste 21 Este 0 -- -- 88
2019-04-11 10:00:00 11.6 5 Sur 17 Sudeste 0 -- -- 84
2019-04-11 09:00:00 10.9 6 Sur 19 Noroeste 0 -- -- 91
2019-04-11 08:00:00 10.5 6 Sudeste 14 Sudeste 0 -- -- 90
2019-04-11 07:00:00 10.3 7 Sudeste 19 Este 0 -- -- 90
2019-04-11 06:00:00 10.3 6 Sudeste 17 Sudeste 0 -- -- 92
2019-04-11 05:00:00 10.6 6 Sur 16 Nordeste 0 -- -- 95
2019-04-11 04:00:00 10.5 5 Este 13 Este 0 -- -- 95
2019-04-11 03:00:00 10.3 5 Sur 21 Este 0 -- -- 92
2019-04-11 02:00:00 10.7 6 Sudeste 16 Sudeste 0 -- -- 94
2019-04-11 01:00:00 10.7 5 Sudeste 18 Este 0 -- -- 91
2019-04-11 00:00:00 10.9 6 Sudeste 18 Este 0 -- -- 92
2019-04-10 23:00:00 11 6 Sudeste 15 Sudeste 0 -- -- 91
2019-04-10 22:00:00 11.2 8 Sudeste 19 Sudeste 0 -- -- 94
2019-04-10 21:00:00 11.4 7 Sur 19 Este 0 -- -- 93
2019-04-10 20:00:00 11.9 7 Sur 19 Sudeste 0 -- -- 91
2019-04-10 19:00:00 12.4 8 Sudeste 16 Sudeste 0 -- -- 86
2019-04-10 18:00:00 13.4 7 Sur 20 Sudeste 0 -- -- 82
2019-04-10 17:00:00 15.4 5 Sudeste 16 Sur 0 -- -- 72
2019-04-10 16:00:00 15.5 5 Este 15 Norte 0 -- -- 72
2019-04-10 15:00:00 14.5 5 Oeste 17 Sur 0 -- -- 75
2019-04-10 14:00:00 13.1 5 Sudoeste 22 Sudeste 0 -- -- 83
2019-04-10 13:00:00 12.4 9 Sudeste 28 Sudeste 0 -- -- 90
2019-04-10 12:00:00 12 9 Sudeste 24 Este 0 -- -- 94
2019-04-10 11:00:00 13.1 6 Este 15 Sudeste 0 -- -- 90
2019-04-10 10:00:00 12.4 6 Sudeste 19 Sudeste 0 -- -- 90
2019-04-10 09:00:00 11.4 5 Sudeste 18 Este 0 -- -- 92
2019-04-10 08:00:00 10.3 4 Este 16 Nordeste 0 -- -- 96
2019-04-10 07:00:00 10.2 5 Sudeste 19 Este 0 -- -- 93
2019-04-10 06:00:00 10.3 8 Este 27 Este 0 -- -- 96
2019-04-10 05:00:00 10.4 7 Sudeste 26 Este 0 -- -- 99
2019-04-10 04:00:00 10.5 7 Sudeste 21 Este 0 -- -- 99
2019-04-10 03:00:00 10.5 6 Sudeste 17 Este 0 -- -- 99
2019-04-10 02:00:00 10.4 4 Sur 9 Este 0 -- -- 100
2019-04-10 01:00:00 10.4 4 Este 13 Sudeste 0 -- -- 100
2019-04-10 00:00:00 10.7 5 Sudeste 14 Este 0 -- -- 100
2019-04-09 23:00:00 11.3 5 Sudeste 15 Este 0 -- -- 100
2019-04-09 22:00:00 11.5 4 Sudeste 20 Sudeste 0 -- -- 100
2019-04-09 21:00:00 11.7 6 Sudeste 21 Este 0 -- -- 100
2019-04-09 20:00:00 12.1 8 Sudeste 21 Este 0 -- -- 100
2019-04-09 19:00:00 12.3 8 Este 23 Sudeste 0 -- -- 100
2019-04-09 18:00:00 12.5 9 Este 19 Este 0.2 -- -- 99
2019-04-09 17:00:00 12.8 6 Sudeste 20 Sudeste 0 -- -- 98
2019-04-09 16:00:00 13.1 7 Este 22 Nordeste 0 -- -- 97
2019-04-09 15:00:00 14.2 8 Sudeste 16 Sudeste 0.4 -- -- 93
2019-04-09 14:00:00 16.5 5 Este 25 Sur 0 -- -- 75
2019-04-09 13:00:00 16 6 Sudeste 17 Sudeste 0 -- -- 76
2019-04-09 12:00:00 16 7 Sudeste 18 Sudeste 0 -- -- 76
2019-04-09 11:00:00 14.9 5 Sur 21 Sur 0 -- -- 85
2019-04-09 10:00:00 13 6 Sudeste 16 Sudeste 0 -- -- 94
2019-04-09 09:00:00 11.7 9 Sudeste 21 Sudeste 0 -- -- 94
2019-04-09 08:00:00 10.9 6 Sudeste 13 Este 0 -- -- 95
2019-04-09 07:00:00 10.8 6 Sudeste 13 Este 0 -- -- 94
2019-04-09 06:00:00 10.5 3 Noroeste 10 Nordeste 0 -- -- 94
2019-04-09 05:00:00 10.3 2 Sudoeste 8 Este 0 -- -- 95
2019-04-09 04:00:00 10.7 2 Sudeste 8 Nordeste 0 -- -- 93
2019-04-09 03:00:00 11 2 Sur 7 Este 0 -- -- 93
2019-04-09 02:00:00 11.1 2 Noroeste 9 Sudeste 0 -- -- 92
2019-04-09 01:00:00 11.2 4 Sudeste 11 Sudeste 0 -- -- 91
2019-04-09 00:00:00 11.4 3 Sudeste 12 Este 0 -- -- 90
2019-04-08 23:00:00 11.5 3 Sudeste 11 Este 0 -- -- 89
2019-04-08 22:00:00 11.6 3 Sudeste 10 Este 0 -- -- 88
2019-04-08 21:00:00 11.7 4 Sudeste 13 Sudeste 0 -- -- 87
2019-04-08 20:00:00 12.3 3 Sur 11 Nordeste 0 -- -- 84
2019-04-08 19:00:00 13 5 Sur 12 Sudeste 0 -- -- 83
2019-04-08 18:00:00 14.3 3 Nordeste 15 Norte 0 -- -- 77
2019-04-08 17:00:00 16.6 5 Sudeste 21 Nordeste 0 -- -- 71
2019-04-08 16:00:00 16.1 5 Sudoeste 12 Sur 0 -- -- 71
2019-04-08 15:00:00 15.5 4 Este 13 Oeste 0 -- -- 73
2019-04-08 14:00:00 14 4 Nordeste 13 Oeste 0 -- -- 79
2019-04-08 13:00:00 12.7 4 Nordeste 14 Sudeste 0 -- -- 88
2019-04-08 12:00:00 12.3 6 Sur 17 Nordeste 0 -- -- 94
2019-04-08 11:00:00 12 6 Oeste 17 Nordeste 0 -- -- 90
2019-04-08 10:00:00 11.7 4 Sudoeste 13 Nordeste 0 -- -- 96
2019-04-08 09:00:00 10.7 5 Norte 16 Nordeste 0 -- -- 93
2019-04-08 08:00:00 10.7 8 Norte 17 Norte 0 -- -- 100
2019-04-08 07:00:00 11.1 4 Sudeste 13 Este 0.2 -- -- 100
2019-04-08 06:00:00 11.2 6 Este 16 Este 0.2 -- -- 100
2019-04-08 05:00:00 11.2 2 Sur 12 Nordeste 0 -- -- 100
2019-04-08 04:00:00 11.1 2 Sudoeste 10 Este 0 -- -- 100
2019-04-08 03:00:00 11.1 4 Este 13 Nordeste 0 -- -- 99
2019-04-08 02:00:00 11.1 4 Norte 12 Norte 0 -- -- 98
2019-04-08 01:00:00 10.9 4 Sur 12 Noroeste 0 -- -- 98
2019-04-08 00:00:00 10.5 4 Norte 10 Norte 0 -- -- 97
2019-04-07 23:00:00 10.3 5 Norte 12 Norte 0 -- -- 96
2019-04-07 22:00:00 11.2 6 Norte 12 Norte 0 -- -- 96
2019-04-07 21:00:00 11.1 4 Nordeste 13 Norte 0 -- -- 93
2019-04-07 20:00:00 12.3 4 Norte 14 Nordeste 0 -- -- 88
2019-04-07 19:00:00 13.8 8 Norte 16 Norte 0 -- -- 78
2019-04-07 18:00:00 14.7 8 Norte 16 Norte 0 -- -- 76
2019-04-07 17:00:00 14.5 5 Norte 13 Norte 0 -- -- 81
2019-04-07 16:00:00 14 6 Noroeste 13 Norte 0 -- -- 87
2019-04-07 15:00:00 13.8 4 Noroeste 13 Norte 0 -- -- 88
2019-04-07 14:00:00 13.4 3 Sudeste 9 Sudeste 0 -- -- 89
2019-04-07 13:00:00 13.2 3 Norte 9 Norte 0 -- -- 91
2019-04-07 12:00:00 12.5 5 Oeste 13 Norte 0 -- -- 93
2019-04-07 11:00:00 12.6 4 Norte 11 Noroeste 0 -- -- 89
2019-04-07 10:00:00 12.5 5 Norte 9 Noroeste 0 -- -- 85
2019-04-07 09:00:00 10.8 3 Norte 9 Norte 0 -- -- 96
2019-04-07 08:00:00 9.4 4 Norte 6 Norte 0 -- -- 93
2019-04-07 07:00:00 9.7 4 Noroeste 6 Noroeste 0 -- -- 97
2019-04-07 06:00:00 10.4 4 Norte 6 Norte 0 -- -- 97
2019-04-07 05:00:00 10.5 0 Calma 5 Este 0 -- -- 97
2019-04-07 04:00:00 10.2 3 Este 10 Nordeste 0 -- -- 97
2019-04-07 03:00:00 10.4 3 Este 8 Sudeste 0 -- -- 96
2019-04-07 02:00:00 10.5 3 Sudeste 10 Este 0 -- -- 96
2019-04-07 01:00:00 10.6 3 Sudeste 12 Sudeste 0 -- -- 95
2019-04-07 00:00:00 10.7 4 Sudeste 12 Sudeste 0 -- -- 96
2019-04-06 23:00:00 11 6 Sudeste 13 Este 0 -- -- 97
2019-04-06 22:00:00 10.9 3 Sur 10 Sur 0 -- -- 96
2019-04-06 21:00:00 10.9 3 Este 14 Sudeste 0 -- -- 93
2019-04-06 20:00:00 11.3 4 Sur 9 Sur 0 -- -- 89
2019-04-06 19:00:00 11.9 5 Sur 14 Este 0 -- -- 85
2019-04-06 18:00:00 12.7 5 Sudoeste 14 Noroeste 0 -- -- 84
2019-04-06 17:00:00 14.5 6 Oeste 21 Nordeste 0 -- -- 78
2019-04-06 16:00:00 14.2 6 Sur 20 Sur 0 -- -- 77
2019-04-06 15:00:00 14 6 Sur 16 Sudeste 0 -- -- 81
2019-04-06 14:00:00 14 6 Sur 18 Sudeste 0 -- -- 78
2019-04-06 13:00:00 13.7 5 Sur 19 Sur 0 -- -- 82
2019-04-06 12:00:00 13.5 7 Sudoeste 20 Nordeste 0 -- -- 80
2019-04-06 11:00:00 12.4 6 Sudoeste 33 Noroeste 0 -- -- 86
2019-04-06 10:00:00 11.1 9 Sudeste 23 Sudoeste 0 -- -- 81
2019-04-06 09:00:00 10.5 8 Sur 32 Nordeste 0 -- -- 90
2019-04-06 08:00:00 9.9 12 Este 35 Norte 0 -- -- 92
2019-04-06 07:00:00 9.8 8 Sur 22 Oeste 0 -- -- 96
2019-04-06 06:00:00 9.6 6 Nordeste 30 Norte 0 -- -- 90
2019-04-06 05:00:00 9.7 7 Sur 22 Sudoeste 0 -- -- 94
2019-04-06 04:00:00 10 10 Sudoeste 23 Sudoeste 0 -- -- 99
2019-04-06 03:00:00 10.4 8 Sudoeste 26 Sur 0 -- -- 99
2019-04-06 02:00:00 10.1 9 Sudoeste 31 Este 0.2 -- -- 98
2019-04-06 01:00:00 10.4 8 Sudoeste 24 Sur 0 -- -- 99
2019-04-06 00:00:00 10.2 8 Sur 28 Sudoeste 0.2 -- -- 96
2019-04-05 23:00:00 10.6 9 Sudeste 30 Este 0.2 -- -- 95
2019-04-05 22:00:00 10.5 12 Nordeste 40 Nordeste 0.2 -- -- 90
2019-04-05 21:00:00 10.8 10 Sudoeste 29 Nordeste 0 -- -- 96
2019-04-05 20:00:00 10.8 9 Norte 28 Noroeste 0 -- -- 92
2019-04-05 19:00:00 11 10 Norte 31 Nordeste 0 -- -- 95
2019-04-05 18:00:00 11 10 Sudeste 31 Este 0 -- -- 99
2019-04-05 17:00:00 11.2 8 Norte 36 Nordeste 0 -- -- 97
2019-04-05 16:00:00 11.9 8 Nordeste 29 Norte 0 -- -- 97
2019-04-05 15:00:00 13 8 Norte 25 Norte 0 -- -- 92
2019-04-05 14:00:00 12.6 8 Norte 28 Norte 0 -- -- 94
2019-04-05 13:00:00 12 8 Norte 36 Norte 0 -- -- 96
2019-04-05 12:00:00 11.9 8 Norte 32 Norte 0 -- -- 93
2019-04-05 11:00:00 11.5 6 Norte 23 Nordeste 0 -- -- 94
2019-04-05 10:00:00 11.3 9 Norte 25 Norte 0 -- -- 95
2019-04-05 09:00:00 10.6 7 Nordeste 22 Norte 0 -- -- 100
2019-04-05 08:00:00 10.2 7 Norte 26 Norte 0 -- -- 99
2019-04-05 07:00:00 9.9 7 Norte 18 Norte 0 -- -- 98
2019-04-05 06:00:00 10 6 Nordeste 18 Norte 0 -- -- 98
2019-04-05 05:00:00 9.8 7 Oeste 24 Norte 0 -- -- 99
2019-04-05 04:00:00 9.8 4 Nordeste 13 Noroeste 0 -- -- 100
2019-04-05 03:00:00 9.6 4 Sudeste 25 Norte 0 -- -- 100
2019-04-05 02:00:00 9.8 10 Nordeste 26 Este 0 -- -- 99
2019-04-05 01:00:00 10.1 6 Noroeste 30 Nordeste 0 -- -- 100
2019-04-05 00:00:00 10.5 9 Sudoeste 21 Sudoeste 0 -- -- 100
2019-04-04 23:00:00 10.5 5 Sudoeste 23 Noroeste 0 -- -- 100
2019-04-04 22:00:00 10.4 9 Norte 21 Norte 0 -- -- 100
2019-04-04 21:00:00 10.5 6 Nordeste 23 Norte 0 -- -- 100
2019-04-04 20:00:00 10.9 6 Sudoeste 23 Noroeste 0 -- -- 100
2019-04-04 19:00:00 11.4 8 Norte 27 Norte 0 -- -- 98
2019-04-04 18:00:00 11.8 6 Sur 27 Nordeste 0 -- -- 94
2019-04-04 17:00:00 12.1 4 Sudoeste 19 Sudeste 0 -- -- 94
2019-04-04 16:00:00 12.2 7 Sudoeste 24 Noroeste 0 -- -- 95
2019-04-04 15:00:00 12.3 8 Sudoeste 21 Sudeste 0 -- -- 98
2019-04-04 14:00:00 13.1 6 Este 25 Norte 0 -- -- 96
2019-04-04 13:00:00 11.8 5 Sudeste 19 Norte 0 -- -- 100
2019-04-04 12:00:00 11.6 6 Sudeste 17 Nordeste 0 -- -- 100
2019-04-04 11:00:00 11.1 8 Norte 22 Norte 0 -- -- 100
2019-04-04 10:00:00 10.3 6 Nordeste 30 Norte 0 -- -- 100
2019-04-04 09:00:00 10.3 9 Norte 30 Norte 0 -- -- 100
2019-04-04 08:00:00 10.2 12 Nordeste 29 Nordeste 0 -- -- 100
2019-04-04 07:00:00 9.7 9 Norte 30 Nordeste 0.8 -- -- 100
2019-04-04 06:00:00 10.1 8 Nordeste 29 Nordeste 0 -- -- 100
2019-04-04 05:00:00 9.7 6 Nordeste 19 Nordeste 0 -- -- 100
2019-04-04 04:00:00 9.3 3 Norte 19 Noroeste 0.4 -- -- 100
2019-04-04 03:00:00 9.3 11 Noroeste 14 Noroeste 2.8 -- -- 100
2019-04-04 02:00:00 9.8 5 Norte 17 Noroeste 0.4 -- -- 100
2019-04-04 01:00:00 9.9 5 Nordeste 31 Noroeste 0.2 -- -- 99
2019-04-04 00:00:00 10.1 14 Noroeste 24 Noroeste 4.2 -- -- 99
2019-04-03 23:00:00 10.4 4 Este 14 Noroeste 0.2 -- -- 98
2019-04-03 22:00:00 10.2 8 Norte 24 Noroeste 0 -- -- 96
2019-04-03 21:00:00 11.1 8 Norte 27 Nordeste 0 -- -- 98
2019-04-03 20:00:00 11.2 6 Noroeste 23 Norte 0 -- -- 97
2019-04-03 19:00:00 11.6 8 Nordeste 30 Nordeste 0 -- -- 96
2019-04-03 18:00:00 12.6 6 Sudeste 33 Noroeste 0 -- -- 88
2019-04-03 17:00:00 14.2 19 Noroeste 40 Noroeste 0 -- -- 75
2019-04-03 16:00:00 15.4 21 Noroeste 36 Noroeste 0 -- -- 73
2019-04-03 15:00:00 13.4 10 Norte 22 Norte 0 -- -- 90
2019-04-03 14:00:00 13.4 9 Norte 23 Norte 0 -- -- 87
2019-04-03 13:00:00 13.6 10 Norte 23 Nordeste 0 -- -- 92
2019-04-03 12:00:00 12.9 7 Norte 21 Noroeste 0 -- -- 100
2019-04-03 11:00:00 11.5 7 Norte 21 Norte 0.4 -- -- 100
2019-04-03 10:00:00 10.4 5 Nordeste 21 Nordeste 0 -- -- 100
2019-04-03 09:00:00 9.9 5 Norte 16 Nordeste 0 -- -- 100
2019-04-03 08:00:00 9.7 4 Norte 14 Norte 0 -- -- 100
2019-04-03 07:00:00 9.8 7 Nordeste 21 Norte 0 -- -- 100
2019-04-03 06:00:00 9.2 11 Norte 17 Norte 0 -- -- 100
2019-04-03 05:00:00 10.1 6 Norte 11 Norte 1 -- -- 100
2019-04-03 04:00:00 10.3 4 Norte 11 Noroeste 0 -- -- 100
2019-04-03 03:00:00 10.3 4 Norte 13 Norte 0 -- -- 100
2019-04-03 02:00:00 10.2 5 Este 14 Norte 0 -- -- 100
2019-04-03 01:00:00 10.6 3 Sudeste 20 Este 0.4 -- -- 100
2019-04-03 00:00:00 10.7 6 Sudeste 20 Nordeste 1.8 -- -- 100
2019-04-02 23:00:00 10.6 3 Sudeste 16 Norte 0 -- -- 100
2019-04-02 22:00:00 10.4 5 Norte 19 Nordeste 0.2 -- -- 100
2019-04-02 21:00:00 10.8 5 Sur 29 Sudeste 0.2 -- -- 100
2019-04-02 20:00:00 11 7 Sur 22 Norte 0.6 -- -- 100
2019-04-02 19:00:00 11.4 7 Sur 24 Nordeste 3.6 -- -- 100
2019-04-02 18:00:00 11.5 5 Sudoeste 27 Este 7.6 -- -- 100
2019-04-02 17:00:00 11.5 8 Nordeste 26 Nordeste 15 -- -- 100
2019-04-02 16:00:00 11.7 9 Sudeste 30 Este 16.8 -- -- 100
2019-04-02 15:00:00 11.7 6 Sudoeste 17 Norte 10.6 -- -- 100
2019-04-02 14:00:00 12.3 3 Nordeste 9 Norte 1.4 -- -- 100
2019-04-02 13:00:00 12.3 2 Noroeste 9 Noroeste 0.4 -- -- 100
2019-04-02 12:00:00 11.8 5 Norte 10 Noroeste 0.8 -- -- 100
2019-04-02 11:00:00 11 2 Sudeste 8 Nordeste 1.4 -- -- 100
2019-04-02 10:00:00 10.5 3 Norte 8 Oeste 0.4 -- -- 100
2019-04-02 09:00:00 9.8 0 Calma 10 Norte 0.4 -- -- 100
2019-04-02 08:00:00 9.6 3 Norte 9 Norte 2 -- -- 100
2019-04-02 07:00:00 9.6 4 Norte 12 Noroeste 7 -- -- 100
2019-04-02 06:00:00 9.9 0 Calma 9 Norte 0.2 -- -- 100
2019-04-02 05:00:00 9.8 4 Sudeste 9 Sudeste 0.2 -- -- 100
2019-04-02 04:00:00 9.5 4 Este 10 Nordeste 0 -- -- 100
2019-04-02 03:00:00 9.2 5 Sur 12 Este 0 -- -- 100
2019-04-02 02:00:00 9 3 Este 15 Sudeste 0 -- -- 100
2019-04-02 01:00:00 8.7 5 Este 12 Este 0 -- -- 100
2019-04-02 00:00:00 8.9 4 Este 17 Sudeste 1 -- -- 100
2019-04-01 23:00:00 9.4 5 Sur 17 Sudeste 4.8 -- -- 100
2019-04-01 22:00:00 10.3 7 Este 18 Noroeste 10.6 -- -- 99
2019-04-01 21:00:00 11.6 0 Calma 9 Norte 1.2 -- -- 100
2019-04-01 20:00:00 11.9 4 Norte 13 Nordeste 3.4 -- -- 99
2019-04-01 19:00:00 12.1 5 Norte 13 Norte 0.2 -- -- 99
2019-04-01 18:00:00 12.8 3 Noroeste 11 Sudeste 0.4 -- -- 97
2019-04-01 17:00:00 13 5 Sudeste 13 Sudeste 0.2 -- -- 98
2019-04-01 16:00:00 12.6 6 Sur 16 Sur 0.2 -- -- 97
2019-04-01 15:00:00 12.8 4 Sur 8 Sudoeste 1.2 -- -- 96
2019-04-01 14:00:00 12.7 3 Norte 9 Sudeste 0.2 -- -- 96
2019-04-01 13:00:00 13.3 3 Este 19 Sur 0.2 -- -- 91
2019-04-01 12:00:00 16.2 8 Sudeste 17 Sudeste 0 -- -- 79
2019-04-01 11:00:00 14.1 9 Sudeste 16 Sudeste 0 -- -- 84
2019-04-01 10:00:00 12 4 Sur 7 Sudoeste 0 -- -- 93
2019-04-01 09:00:00 10.4 5 Sudoeste 8 Oeste 0 -- -- 94
2019-04-01 08:00:00 10 3 Sudoeste 9 Sudoeste 0 -- -- 95
2019-04-01 07:00:00 9.6 0 Calma 6 Sudoeste 0 -- -- 97
2019-04-01 06:00:00 9.4 5 Sudoeste 7 Sudoeste 0 -- -- 97
2019-04-01 05:00:00 10 0 Calma 5 Oeste 0 -- -- 99
2019-04-01 04:00:00 10.3 0 Calma 6 Noroeste 0 -- -- 99
2019-04-01 03:00:00 10.3 3 Norte 8 Norte 0 -- -- 99
2019-04-01 02:00:00 10.5 3 Norte 8 Norte 0 -- -- 99
2019-04-01 01:00:00 10.6 3 Norte 13 Norte 0 -- -- 98
2019-04-01 00:00:00 10.5 4 Nordeste 13 Nordeste 0 -- -- 98
2019-03-31 23:00:00 11.1 5 Norte 11 Norte 0 -- -- 98
2019-03-31 22:00:00 11.2 3 Nordeste 18 Noroeste 0 -- -- 98
2019-03-31 21:00:00 11.7 4 Nordeste 16 Noroeste 0.2 -- -- 98
2019-03-31 20:00:00 12 5 Este 15 Noroeste 0.2 -- -- 97
2019-03-31 19:00:00 12.7 5 Oeste 14 Oeste 0.2 -- -- 94
2019-03-31 18:00:00 13.1 6 Nordeste 18 Norte 0 -- -- 91
2019-03-31 17:00:00 15.2 8 Norte 20 Norte 0 -- -- 79
2019-03-31 16:00:00 15.9 7 Norte 18 Noroeste 0 -- -- 76
2019-03-31 15:00:00 15.2 5 Norte 18 Norte 0 -- -- 81
2019-03-31 14:00:00 14.5 6 Norte 18 Norte 0 -- -- 93
2019-03-31 13:00:00 13 7 Norte 21 Nordeste 0.6 -- -- 92
2019-03-31 12:00:00 15.2 8 Norte 22 Nordeste 0 -- -- 84
2019-03-31 11:00:00 14 6 Nordeste 23 Nordeste 0 -- -- 87
2019-03-31 10:00:00 12.8 5 Norte 13 Norte 0 -- -- 88
2019-03-31 09:00:00 11.2 5 Norte 17 Norte 0 -- -- 98
2019-03-31 08:00:00 10.6 6 Norte 23 Noroeste 0 -- -- 98
2019-03-31 07:00:00 11 8 Norte 23 Norte 0 -- -- 98
2019-03-31 06:00:00 11 9 Norte 17 Norte 0 -- -- 97
2019-03-31 05:00:00 10.7 8 Norte 17 Nordeste 0 -- -- 96
2019-03-31 04:00:00 10.1 10 Noroeste 18 Norte 0 -- -- 95
2019-03-31 00:00:00 10.7 6 Norte 18 Norte 0 -- -- 96
2019-03-30 23:00:00 9.9 9 Norte 18 Noroeste 0 -- -- 94
2019-03-30 22:00:00 10.2 8 Norte 19 Norte 0 -- -- 90
2019-03-30 21:00:00 10.3 12 Norte 19 Norte 0 -- -- 89
2019-03-30 20:00:00 10.7 6 Norte 17 Noroeste 0 -- -- 79
2019-03-30 19:00:00 13.8 8 Norte 21 Noroeste 0 -- -- 66
2019-03-30 18:00:00 16 9 Noroeste 18 Norte 0 -- -- 60
2019-03-30 17:00:00 16.2 8 Norte 18 Norte 0 -- -- 60
2019-03-30 16:00:00 16.4 8 Norte 19 Norte 0 -- -- 63
2019-03-30 15:00:00 15.3 9 Norte 18 Nordeste 0 -- -- 64
2019-03-30 14:00:00 15.2 8 Noroeste 21 Norte 0 -- -- 69
2019-03-30 13:00:00 14.6 5 Norte 16 Nordeste 0 -- -- 72
2019-03-30 12:00:00 13.9 4 Norte 16 Noroeste 0 -- -- 83
2019-03-30 11:00:00 13 6 Norte 14 Norte 0 -- -- 95
2019-03-30 10:00:00 11 6 Nordeste 19 Norte 0 -- -- 100
2019-03-30 09:00:00 10.4 10 Norte 28 Nordeste 0.4 -- -- 100
2019-03-30 08:00:00 10.5 9 Sudeste 26 Norte 0.2 -- -- 100
2019-03-30 07:00:00 10.3 8 Norte 26 Norte 0 -- -- 100
2019-03-30 06:00:00 10.1 8 Norte 20 Norte 1 -- -- 100
2019-03-30 05:00:00 9.8 7 Norte 18 Norte 1 -- -- 99
2019-03-30 04:00:00 9.4 13 Noroeste 21 Norte 0.4 -- -- 98
2019-03-30 03:00:00 9.4 16 Noroeste 20 Noroeste 0 -- -- 97
2019-03-30 02:00:00 9.2 12 Noroeste 19 Norte 0 -- -- 98
2019-03-30 01:00:00 9.3 10 Noroeste 14 Norte 0 -- -- 97
2019-03-30 00:00:00 9.6 9 Noroeste 11 Noroeste 0 -- -- 98
2019-03-29 23:00:00 10.2 6 Norte 10 Noroeste 0 -- -- 98
2019-03-29 22:00:00 10.4 2 Norte 16 Norte 0.6 -- -- 98
2019-03-29 21:00:00 10.4 6 Norte 15 Nordeste 1.8 -- -- 97
2019-03-29 20:00:00 10.5 8 Nordeste 16 Norte 10 -- -- 93
2019-03-29 19:00:00 11.8 8 Noroeste 23 Noroeste 0.2 -- -- 93
2019-03-29 18:00:00 14.8 9 Norte 23 Norte 0 -- -- 76
2019-03-29 17:00:00 15.6 6 Noroeste 16 Norte 0 -- -- 72
2019-03-29 16:00:00 14.1 5 Sur 13 Sudeste 0 -- -- 76
2019-03-29 15:00:00 14.2 5 Sudeste 13 Sudeste 0 -- -- 83
2019-03-29 14:00:00 14.1 6 Sudeste 17 Sudeste 0 -- -- 76
2019-03-29 13:00:00 13.5 8 Sudeste 15 Sudeste 0 -- -- 91
2019-03-29 12:00:00 13.4 6 Sudeste 11 Sudeste 0 -- -- 94
2019-03-29 11:00:00 12.4 2 Noroeste 8 Norte 0 -- -- 94
2019-03-29 10:00:00 13.3 3 Sudeste 13 Sur 0 -- -- 89
2019-03-29 09:00:00 12.1 3 Noroeste 6 Sudoeste 0 -- -- 90
2019-03-29 08:00:00 10.6 4 Nordeste 9 Norte 0 -- -- 97
2019-03-29 07:00:00 10.5 0 Calma 12 Noroeste 0 -- -- 96
2019-03-29 06:00:00 10.5 8 Noroeste 9 Noroeste 0 -- -- 97
2019-03-29 05:00:00 10.4 5 Norte 9 Oeste 0 -- -- 96
2019-03-29 04:00:00 10.5 4 Sur 12 Sudoeste 0.6 -- -- 95
2019-03-29 03:00:00 10.6 3 Oeste 11 Sudoeste 0 -- -- 93
2019-03-29 02:00:00 10.7 7 Sudoeste 12 Sudoeste 0 -- -- 95
2019-03-29 01:00:00 10.1 3 Noroeste 9 Sudoeste 0 -- -- 97
2019-03-29 00:00:00 10.3 5 Norte 14 Noroeste 0 -- -- 97
2019-03-28 23:00:00 10.8 4 Oeste 14 Sudoeste 0 -- -- 93
2019-03-28 22:00:00 10.9 12 Sudoeste 14 Sudoeste 0 -- -- 97
2019-03-28 21:00:00 11.1 4 Sur 11 Sur 0 -- -- 96
2019-03-28 20:00:00 11.1 8 Sudoeste 10 Sudoeste 0 -- -- 97
2019-03-28 19:00:00 11.8 2 Sur 5 Sudoeste 0 -- -- 97
2019-03-28 18:00:00 12.4 2 Sudoeste 7 Norte 0 -- -- 96
2019-03-28 17:00:00 13.2 5 Norte 9 Norte 0 -- -- 94
2019-03-28 16:00:00 12.1 2 Nordeste 6 Oeste 0.2 -- -- 98
2019-03-28 15:00:00 11.7 4 Norte 9 Norte 6 -- -- 99
2019-03-28 14:00:00 12 5 Norte 9 Norte 2.2 -- -- 99
2019-03-28 13:00:00 12.2 5 Norte 10 Norte 3 -- -- 98
2019-03-28 12:00:00 12.4 2 Este 14 Este 0.2 -- -- 95
2019-03-28 11:00:00 13.5 3 Sudeste 12 Sudeste 0 -- -- 93
2019-03-28 10:00:00 13.1 3 Norte 8 Norte 0 -- -- 96
2019-03-28 09:00:00 11.8 3 Norte 6 Noroeste 0 -- -- 100
2019-03-28 08:00:00 10.7 0 Calma 10 Noroeste 0 -- -- 100
2019-03-28 07:00:00 10.4 3 Oeste 10 Noroeste 0 -- -- 100
2019-03-28 06:00:00 10.6 3 Noroeste 13 Noroeste 0 -- -- 100
2019-03-28 05:00:00 10.6 7 Noroeste 13 Noroeste 0 -- -- 99
2019-03-28 04:00:00 10.2 5 Norte 10 Norte 0 -- -- 99
2019-03-28 03:00:00 10.1 4 Oeste 9 Sudoeste 0 -- -- 97
2019-03-28 02:00:00 10.3 5 Sudoeste 9 Sudoeste 0 -- -- 97
2019-03-28 01:00:00 10.2 4 Sur 12 Sudoeste 0 -- -- 96
2019-03-28 00:00:00 10.7 4 Sur 13 Sudoeste 0 -- -- 96
2019-03-27 23:00:00 10.9 2 Sudoeste 8 Sudoeste 0 -- -- 98
2019-03-27 22:00:00 11.4 3 Noroeste 6 Este 0 -- -- 98
2019-03-27 21:00:00 11.5 0 Calma 8 Este 0 -- -- 98
2019-03-27 20:00:00 11.7 3 Sudeste 8 Norte 0 -- -- 97
2019-03-27 19:00:00 12.2 3 Norte 9 Este 0 -- -- 96
2019-03-27 18:00:00 12.6 2 Sudeste 9 Sur 0 -- -- 97
2019-03-27 17:00:00 12.7 3 Sudoeste 13 Sudeste 0 -- -- 96
2019-03-27 16:00:00 13.3 4 Este 14 Sudeste 0 -- -- 99
2019-03-27 15:00:00 13 5 Sudeste 16 Sudeste 0.2 -- -- 99
2019-03-27 14:00:00 12.9 4 Sur 15 Sudeste 0.4 -- -- 97
2019-03-27 13:00:00 13.6 4 Norte 14 Nordeste 0 -- -- 93
2019-03-27 12:00:00 12.8 3 Sudeste 18 Nordeste 0 -- -- 99
2019-03-27 11:00:00 12.5 6 Este 14 Este 0 -- -- 98
2019-03-27 10:00:00 12.5 5 Nordeste 12 Nordeste 0 -- -- 99
2019-03-27 09:00:00 11.7 3 Nordeste 17 Noroeste 0 -- -- 100
2019-03-27 08:00:00 11.6 4 Sudoeste 19 Nordeste 0 -- -- 100
2019-03-27 07:00:00 11.3 5 Este 21 Nordeste 0 -- -- 100
2019-03-27 06:00:00 11.3 4 Noroeste 16 Norte 0 -- -- 100
2019-03-27 05:00:00 11.4 5 Este 22 Nordeste 0 -- -- 100
2019-03-27 04:00:00 11.8 7 Este 23 Este 0 -- -- 100
2019-03-27 03:00:00 12 6 Sur 24 Sudeste 0 -- -- 100
2019-03-27 02:00:00 11.7 5 Este 24 Nordeste 0 -- -- 100
2019-03-27 01:00:00 12.1 6 Sudeste 24 Nordeste 0 -- -- 100
2019-03-27 00:00:00 12.3 8 Este 24 Nordeste 0 -- -- 100
2019-03-26 23:00:00 12.2 5 Sur 28 Nordeste 0 -- -- 99
2019-03-26 22:00:00 12.1 9 Nordeste 23 Norte 0 -- -- 98
2019-03-26 21:00:00 12.2 12 Nordeste 28 Nordeste 0 -- -- 98
2019-03-26 20:00:00 12.2 8 Norte 26 Norte 0 -- -- 96
2019-03-26 19:00:00 12.8 9 Norte 26 Norte 0 -- -- 96
2019-03-26 18:00:00 13.9 4 Norte 17 Nordeste 0 -- -- 91
2019-03-26 17:00:00 15.9 7 Norte 18 Noroeste 0 -- -- 81
2019-03-26 16:00:00 18 6 Norte 20 Norte 0 -- -- 72
2019-03-26 15:00:00 16.8 6 Norte 15 Norte 0 -- -- 80
2019-03-26 14:00:00 16.9 8 Noroeste 19 Norte 0 -- -- 78
2019-03-26 13:00:00 16.2 6 Norte 16 Noroeste 0 -- -- 79
2019-03-26 12:00:00 15.2 8 Norte 17 Norte 0 -- -- 83
2019-03-26 11:00:00 14.8 5 Norte 14 Noroeste 0 -- -- 84
2019-03-26 10:00:00 13.3 9 Noroeste 19 Norte 0 -- -- 90
2019-03-26 09:00:00 11.7 7 Norte 21 Noroeste 0 -- -- 89
2019-03-26 08:00:00 9.3 11 Noroeste 19 Noroeste 0 -- -- 88
2019-03-26 07:00:00 8.4 10 Norte 16 Norte 0 -- -- 94
2019-03-26 06:00:00 8.7 8 Norte 27 Norte 0 -- -- 94
2019-03-26 05:00:00 9 16 Noroeste 25 Noroeste 0 -- -- 97
2019-03-26 04:00:00 8.6 15 Noroeste 21 Noroeste 0 -- -- 98
2019-03-26 03:00:00 9.3 12 Noroeste 19 Noroeste 0 -- -- 99
2019-03-26 02:00:00 9.4 11 Norte 17 Noroeste 0 -- -- 100
2019-03-26 01:00:00 9.1 10 Norte 14 Noroeste 0 -- -- 99
2019-03-26 00:00:00 9.6 9 Noroeste 15 Norte 0 -- -- 99
2019-03-25 23:00:00 9.9 5 Norte 13 Norte 0 -- -- 99
2019-03-25 22:00:00 9.3 4 Norte 7 Noroeste 0 -- -- 95
2019-03-25 21:00:00 9.2 4 Noroeste 10 Sudoeste 0.2 -- -- 96
2019-03-25 20:00:00 9.4 9 Sudoeste 18 Sur 4 -- -- 97
2019-03-25 19:00:00 10.3 7 Sudoeste 18 Sudeste 6.2 -- -- 96
2019-03-25 18:00:00 11.3 3 Oeste 11 Norte 0.4 -- -- 96
2019-03-25 17:00:00 12.1 6 Norte 14 Noroeste 0 -- -- 92
2019-03-25 16:00:00 12.9 6 Sudeste 21 Oeste 0 -- -- 92
2019-03-25 15:00:00 11.7 17 Sur 27 Sudeste 0 -- -- 95
2019-03-25 14:00:00 11.2 10 Sur 26 Sudeste 0.4 -- -- 94
2019-03-25 13:00:00 11.7 18 Sur 31 Sur 0 -- -- 89
2019-03-25 12:00:00 11.1 12 Sur 30 Sur 0 -- -- 96
2019-03-25 11:00:00 10 13 Sur 27 Sur 1.8 -- -- 98
2019-03-25 10:00:00 10.1 10 Sur 16 Sur 1.4 -- -- 97
2019-03-25 09:00:00 9.7 8 Sudoeste 18 Sur 3.2 -- -- 96
2019-03-25 08:00:00 9.4 10 Sudoeste 16 Sudoeste 0.2 -- -- 97
2019-03-25 07:00:00 9.7 6 Oeste 22 Noroeste 3.2 -- -- 94
2019-03-25 06:00:00 10.2 10 Noroeste 15 Noroeste 0.4 -- -- 93
2019-03-25 05:00:00 10.2 4 Sur 8 Sudoeste 0 -- -- 91
2019-03-25 04:00:00 10.2 5 Sur 8 Sur 0 -- -- 88
2019-03-25 03:00:00 10.4 3 Sudoeste 9 Sudoeste 0 -- -- 83
2019-03-25 02:00:00 10.4 4 Noroeste 8 Norte 0 -- -- 89
2019-03-25 01:00:00 10.1 5 Norte 10 Norte 0 -- -- 90
2019-03-25 00:00:00 9.9 3 Oeste 10 Sudoeste 0 -- -- 86
2019-03-24 23:00:00 10.2 6 Noroeste 12 Sudoeste 0 -- -- 91
2019-03-24 22:00:00 10.2 6 Sudoeste 11 Sudoeste 0 -- -- 91
2019-03-24 21:00:00 10.8 2 Sur 9 Sur 0 -- -- 90
2019-03-24 20:00:00 11.6 6 Sur 8 Sur 0 -- -- 87
2019-03-24 19:00:00 12.3 5 Sudeste 8 Sudeste 0 -- -- 84
2019-03-24 18:00:00 12.8 2 Sudeste 6 Nordeste 0 -- -- 81
2019-03-24 17:00:00 13.8 3 Sudeste 22 Sur 0 -- -- 73
2019-03-24 16:00:00 15.9 8 Sur 19 Sudeste 0 -- -- 70
2019-03-24 15:00:00 12.4 4 Norte 13 Nordeste 0 -- -- 79
2019-03-24 14:00:00 12.9 6 Este 11 Norte 0 -- -- 76
2019-03-24 13:00:00 12.8 4 Nordeste 9 Sudeste 0 -- -- 79
2019-03-24 12:00:00 12.1 3 Noroeste 14 Sudeste 0 -- -- 81
2019-03-24 11:00:00 12.6 6 Sudeste 15 Sudeste 0 -- -- 86
2019-03-24 10:00:00 11.1 3 Sudoeste 6 Norte 0 -- -- 91
2019-03-24 09:00:00 10.7 3 Sudoeste 7 Este 0 -- -- 91
2019-03-24 08:00:00 10.3 4 Nordeste 8 Noroeste 0 -- -- 91
2019-03-24 07:00:00 10.3 4 Este 10 Este 0 -- -- 92
2019-03-24 06:00:00 10.4 3 Sudeste 15 Este 0 -- -- 94
2019-03-24 05:00:00 10.3 4 Sudeste 10 Sudeste 0 -- -- 93
2019-03-24 04:00:00 10.4 4 Sur 15 Este 0 -- -- 91
2019-03-24 03:00:00 10.5 4 Sudeste 12 Sur 0 -- -- 93
2019-03-24 02:00:00 10.6 4 Sudoeste 14 Sudeste 0 -- -- 92
2019-03-24 01:00:00 10.5 4 Sudeste 15 Este 0 -- -- 93
2019-03-24 00:00:00 10.8 4 Sur 14 Sudeste 0 -- -- 96
2019-03-23 23:00:00 10.2 4 Sudoeste 13 Oeste 0 -- -- 93
2019-03-23 22:00:00 10.4 5 Sur 18 Sudoeste 0 -- -- 91
2019-03-23 21:00:00 11.2 6 Sudoeste 15 Sur 0 -- -- 94
2019-03-23 20:00:00 11.2 7 Sudoeste 21 Nordeste 0 -- -- 92
2019-03-23 19:00:00 11.6 5 Sur 18 Sudeste 0 -- -- 89
2019-03-23 18:00:00 12.4 7 Sudeste 15 Sudeste 0 -- -- 85
2019-03-23 17:00:00 13.3 6 Sur 19 Este 0 -- -- 79
2019-03-23 16:00:00 14.4 6 Sudeste 17 Este 0 -- -- 73
2019-03-23 15:00:00 13.1 7 Sudeste 18 Sudeste 0 -- -- 82
2019-03-23 14:00:00 13.1 6 Sur 20 Sur 0 -- -- 83
2019-03-23 13:00:00 13.4 6 Sur 19 Nordeste 0 -- -- 78
2019-03-23 12:00:00 14.9 7 Sudeste 18 Sur 0 -- -- 74
2019-03-23 11:00:00 13.8 4 Noroeste 18 Sur 0 -- -- 74
2019-03-23 10:00:00 12.9 5 Sudeste 18 Sudeste 0 -- -- 75
2019-03-23 09:00:00 11.1 5 Sur 18 Sudeste 0 -- -- 88
2019-03-23 08:00:00 10.5 4 Sur 16 Nordeste 0 -- -- 88
2019-03-23 07:00:00 10.3 5 Sudoeste 15 Sur 0 -- -- 89
2019-03-23 06:00:00 10.4 4 Sudoeste 17 Oeste 0 -- -- 92
2019-03-23 05:00:00 10.4 6 Sudoeste 19 Sur 0 -- -- 93
2019-03-23 04:00:00 10.7 5 Sur 21 Este 0 -- -- 96
2019-03-23 03:00:00 10.7 6 Sur 15 Sudeste 0 -- -- 96
2019-03-23 02:00:00 10.8 6 Sudoeste 22 Sudeste 0 -- -- 96
2019-03-23 01:00:00 10.8 8 Sur 20 Sudoeste 0 -- -- 96
2019-03-23 00:00:00 11 7 Sur 21 Sur 0 -- -- 97
2019-03-22 23:00:00 10.9 7 Sudeste 20 Sudeste 0 -- -- 95
2019-03-22 22:00:00 11.1 7 Sudeste 19 Nordeste 0 -- -- 96
2019-03-22 21:00:00 11.1 8 Sur 18 Sur 0 -- -- 95
2019-03-22 20:00:00 11.1 8 Sur 19 Sudoeste 0 -- -- 94
2019-03-22 19:00:00 11.2 8 Sur 18 Sudeste 0 -- -- 93
2019-03-22 18:00:00 11.4 7 Sudoeste 17 Este 0 -- -- 88
2019-03-22 17:00:00 11.7 6 Sudoeste 17 Sudeste 0 -- -- 89
2019-03-22 16:00:00 12.3 5 Sur 21 Este 0 -- -- 86
2019-03-22 15:00:00 12 6 Sur 14 Sur 0 -- -- 90
2019-03-22 14:00:00 13.3 6 Sudeste 15 Sudeste 0 -- -- 85
2019-03-22 13:00:00 11.3 5 Sur 19 Este 0 -- -- 89
2019-03-22 12:00:00 11.3 7 Sur 21 Este 0 -- -- 91
2019-03-22 11:00:00 12.1 7 Sudeste 21 Sudeste 0 -- -- 85
2019-03-22 10:00:00 11.3 6 Sur 21 Este 0 -- -- 84
2019-03-22 09:00:00 10.8 6 Sudeste 26 Este 0 -- -- 87
2019-03-22 08:00:00 10.3 9 Sudeste 22 Este 0 -- -- 90
2019-03-22 07:00:00 10.2 8 Sur 22 Sudeste 0 -- -- 89
2019-03-22 06:00:00 10.3 7 Sur 18 Sudeste 0 -- -- 90
2019-03-22 05:00:00 10.5 7 Sur 18 Nordeste 0 -- -- 94
2019-03-22 04:00:00 10.4 6 Sur 16 Sudeste 0 -- -- 93
2019-03-22 03:00:00 10.5 6 Sudeste 19 Sudeste 0 -- -- 94
2019-03-22 02:00:00 10.5 7 Sur 16 Nordeste 0 -- -- 95
2019-03-22 01:00:00 10.8 6 Sur 19 Este 0 -- -- 98
2019-03-22 00:00:00 11 5 Sur 16 Oeste 0 -- -- 98
2019-03-21 23:00:00 11 7 Sur 19 Sur 0 -- -- 98
2019-03-21 22:00:00 11.1 5 Sudeste 18 Sudeste 0 -- -- 99
2019-03-21 21:00:00 11.1 5 Sudeste 16 Sudeste 0 -- -- 99
2019-03-21 20:00:00 11.3 5 Sudoeste 14 Sudeste 0 -- -- 99
2019-03-21 19:00:00 11.6 6 Sur 22 Nordeste 0 -- -- 99
2019-03-21 18:00:00 11.8 6 Sur 15 Sur 0 -- -- 98
2019-03-21 17:00:00 12.1 8 Sudeste 15 Norte 0 -- -- 97
2019-03-21 16:00:00 12.3 5 Sur 12 Sudeste 0 -- -- 96
2019-03-21 15:00:00 12.9 4 Sur 21 Nordeste 0 -- -- 94
2019-03-21 14:00:00 12.7 5 Sudoeste 15 Nordeste 0 -- -- 94
2019-03-21 13:00:00 12.9 6 Sur 15 Este 0 -- -- 94
2019-03-21 12:00:00 13.1 5 Sudeste 19 Sudeste 0 -- -- 93
2019-03-21 11:00:00 12.1 5 Sudeste 15 Sudeste 0 -- -- 97
2019-03-21 10:00:00 11.8 4 Sudeste 15 Sudeste 0 -- -- 98
2019-03-21 09:00:00 11.5 4 Sur 14 Este 0 -- -- 98
2019-03-21 08:00:00 11.2 4 Sur 12 Sudoeste 0 -- -- 99
2019-03-21 07:00:00 11.1 5 Sudeste 13 Sudoeste 0 -- -- 98
2019-03-21 06:00:00 10.9 4 Este 11 Nordeste 0 -- -- 98
2019-03-21 05:00:00 11 5 Sudeste 13 Este 0 -- -- 98
2019-03-21 04:00:00 11.1 4 Sudeste 12 Sudeste 0 -- -- 97
2019-03-21 03:00:00 11.1 4 Sudeste 15 Sudeste 0 -- -- 97
2019-03-21 02:00:00 11.1 5 Este 13 Nordeste 0 -- -- 96
2019-03-21 01:00:00 11.2 4 Sudeste 15 Este 0 -- -- 95
2019-03-21 00:00:00 11.2 4 Sur 17 Este 0 -- -- 96
2019-03-20 23:00:00 11.3 4 Sudeste 13 Este 0 -- -- 98
2019-03-20 22:00:00 11.5 5 Sudeste 13 Sudeste 0 -- -- 99
2019-03-20 21:00:00 11.5 4 Sudeste 16 Este 0 -- -- 98
2019-03-20 20:00:00 11.6 5 Sur 13 Este 0 -- -- 98
2019-03-20 19:00:00 11.7 5 Sudeste 13 Sudoeste 0 -- -- 97
2019-03-20 18:00:00 11.8 4 Este 17 Sudeste 0 -- -- 97
2019-03-20 17:00:00 12.2 4 Sur 18 Este 0 -- -- 97
2019-03-20 16:00:00 12.1 5 Este 15 Nordeste 0 -- -- 96
2019-03-20 15:00:00 12.6 4 Este 14 Nordeste 0 -- -- 92
2019-03-20 14:00:00 13.1 3 Sur 16 Este 0 -- -- 88
2019-03-20 13:00:00 13.2 4 Este 12 Sur 0 -- -- 87
2019-03-20 12:00:00 13 3 Este 14 Nordeste 0 -- -- 85
2019-03-20 11:00:00 12.4 4 Sudeste 14 Sudeste 0 -- -- 86
2019-03-20 10:00:00 11.5 5 Sudeste 18 Nordeste 0 -- -- 91
2019-03-20 09:00:00 11.5 4 Sudeste 11 Sudeste 0 -- -- 88
2019-03-20 08:00:00 10.7 5 Sudeste 13 Sudeste 0 -- -- 89
2019-03-20 07:00:00 10.5 6 Sudeste 24 Sudeste 0 -- -- 90
2019-03-20 06:00:00 10.5 6 Sudeste 19 Este 0 -- -- 90
2019-03-20 05:00:00 10.2 5 Sudeste 14 Sudeste 0 -- -- 89
2019-03-20 04:00:00 10.3 5 Sudeste 15 Sudeste 0 -- -- 91
2019-03-20 03:00:00 10.3 3 Sudeste 12 Nordeste 0 -- -- 91
2019-03-20 02:00:00 10.3 5 Sudeste 13 Este 0 -- -- 89
2019-03-20 01:00:00 10.5 4 Sudeste 13 Norte 0 -- -- 90
2019-03-20 00:00:00 10.5 5 Sur 12 Este 0 -- -- 90
2019-03-19 23:00:00 10.6 5 Sudeste 14 Norte 0 -- -- 89
2019-03-19 22:00:00 10.6 5 Sur 16 Sur 0 -- -- 90
2019-03-19 21:00:00 10.8 4 Sur 17 Oeste 0 -- -- 97
2019-03-19 20:00:00 10.9 7 Sudeste 16 Este 0 -- -- 95
2019-03-19 19:00:00 10.7 4 Sur 18 Sudeste 0 -- -- 93
2019-03-19 18:00:00 11 6 Sudeste 16 Este 0 -- -- 95
2019-03-19 17:00:00 11.1 5 Sudeste 14 Noroeste 0 -- -- 94
2019-03-19 16:00:00 11.1 6 Sur 23 Sudeste 0 -- -- 95
2019-03-19 15:00:00 11.9 6 Sudoeste 14 Nordeste 0 -- -- 90
2019-03-19 14:00:00 11.5 5 Sudeste 13 Sudeste 0 -- -- 91
2019-03-19 13:00:00 11.2 4 Este 15 Sur 0 -- -- 93
2019-03-19 12:00:00 11.2 6 Sur 18 Oeste 0 -- -- 95
2019-03-19 11:00:00 11.6 6 Sur 18 Nordeste 0 -- -- 95
2019-03-19 10:00:00 11.2 9 Sudeste 22 Este 0 -- -- 94
2019-03-19 09:00:00 10.7 8 Sudeste 28 Este 0 -- -- 98
2019-03-19 08:00:00 10.9 8 Sudeste 30 Este 0 -- -- 97
2019-03-19 07:00:00 10.5 8 Sudeste 25 Sudeste 0 -- -- 98
2019-03-19 06:00:00 11 8 Sudeste 21 Sudeste 0 -- -- 98
2019-03-19 05:00:00 11 6 Sudeste 21 Nordeste 0 -- -- 97
2019-03-19 04:00:00 11 7 Sudeste 17 Este 0 -- -- 95
2019-03-19 03:00:00 11.2 7 Sudeste 22 Este 0 -- -- 96
2019-03-19 02:00:00 11.1 6 Sur 21 Nordeste 0 -- -- 92
2019-03-19 01:00:00 11.1 9 Sudeste 22 Sudeste 0 -- -- 90
2019-03-19 00:00:00 11.1 7 Sudeste 17 Sudeste 0 -- -- 91